HVN1825 VVTS-VVPQ
Flight info
| Callsign | HVN1825 |
|---|---|
| Flight time | 0h 30m |
| Altitude | 20000 |
| Route | BACHU5A BACHU W17 TUNPO TIHAN1C |
| Aircraft | A321/M-SDE3FGHIRWY/LB1 |
Departure
| Time | 2026-04-22 05:35 |
|---|---|
| Airport | Tan Son Nhat International Airport (VVTS) |
Arrival
| Time | 2026-04-22 06:05 |
|---|---|
| Airport | Phú Quốc International Airport (VVPQ) |
| Time | Latitude | Longitude | Altitude | Speed | Heading |
|---|---|---|---|---|---|
| 2026-04-22 04:57 | 10.81208 | 106.65910 | 38 ft | 0 kts | 185° |
| 2026-04-22 05:25 | 10.81221 | 106.65911 | 36 ft | 4 kts | 179° |
| 2026-04-22 05:26 | 10.81247 | 106.65907 | 35 ft | 4 kts | 154° |
| 2026-04-22 05:26 | 10.81267 | 106.65892 | 35 ft | 4 kts | 121° |
| 2026-04-22 05:26 | 10.81275 | 106.65871 | 34 ft | 1 kts | 95° |
| 2026-04-22 05:28 | 10.81274 | 106.65879 | 35 ft | 3 kts | 95° |
| 2026-04-22 05:29 | 10.81272 | 106.65904 | 36 ft | 4 kts | 95° |
| 2026-04-22 05:29 | 10.81268 | 106.65943 | 36 ft | 7 kts | 95° |
| 2026-04-22 05:29 | 10.81273 | 106.66005 | 36 ft | 9 kts | 56° |
| 2026-04-22 05:29 | 10.81339 | 106.66024 | 37 ft | 11 kts | 4° |
| 2026-04-22 05:30 | 10.81421 | 106.66031 | 37 ft | 13 kts | 5° |
| 2026-04-22 05:30 | 10.81514 | 106.66040 | 37 ft | 14 kts | 5° |
| 2026-04-22 05:30 | 10.81617 | 106.66050 | 36 ft | 16 kts | 5° |
| 2026-04-22 05:30 | 10.81731 | 106.66060 | 37 ft | 17 kts | 5° |
| 2026-04-22 05:31 | 10.81850 | 106.66076 | 36 ft | 14 kts | 25° |
| 2026-04-22 05:31 | 10.81894 | 106.66160 | 34 ft | 15 kts | 69° |
| 2026-04-22 05:31 | 10.81931 | 106.66258 | 37 ft | 15 kts | 69° |
| 2026-04-22 05:31 | 10.81970 | 106.66361 | 37 ft | 16 kts | 69° |
| 2026-04-22 05:32 | 10.82014 | 106.66479 | 34 ft | 19 kts | 69° |
| 2026-04-22 05:32 | 10.82061 | 106.66602 | 34 ft | 15 kts | 69° |
| 2026-04-22 05:32 | 10.82101 | 106.66707 | 33 ft | 17 kts | 69° |
| 2026-04-22 05:32 | 10.82145 | 106.66825 | 31 ft | 19 kts | 68° |
| 2026-04-22 05:33 | 10.82190 | 106.66943 | 34 ft | 15 kts | 69° |
| 2026-04-22 05:33 | 10.82251 | 106.67010 | 36 ft | 14 kts | 358° |
| 2026-04-22 05:33 | 10.82328 | 106.66959 | 35 ft | 10 kts | 307° |
| 2026-04-22 05:33 | 10.82361 | 106.66930 | 35 ft | 5 kts | 261° |
| 2026-04-22 05:34 | 10.82348 | 106.66892 | 35 ft | 8 kts | 248° |
| 2026-04-22 05:34 | 10.82280 | 106.66714 | 30 ft | 63 kts | 249° |
| 2026-04-22 05:34 | 10.82032 | 106.66052 | 39 ft | 134 kts | 250° |
| 2026-04-22 05:34 | 10.81628 | 106.64991 | 188 ft | 175 kts | 248° |
| 2026-04-22 05:35 | 10.81218 | 106.63834 | 939 ft | 177 kts | 246° |
| 2026-04-22 05:35 | 10.80753 | 106.62609 | 1373 ft | 197 kts | 246° |
| 2026-04-22 05:35 | 10.80229 | 106.61256 | 1738 ft | 219 kts | 246° |
| 2026-04-22 05:35 | 10.79640 | 106.59734 | 2057 ft | 244 kts | 246° |
| 2026-04-22 05:36 | 10.78989 | 106.58047 | 2478 ft | 266 kts | 247° |
| 2026-04-22 05:36 | 10.78309 | 106.56268 | 3223 ft | 272 kts | 246° |
| 2026-04-22 05:36 | 10.77622 | 106.54457 | 4032 ft | 276 kts | 248° |
| 2026-04-22 05:36 | 10.76928 | 106.52628 | 4835 ft | 279 kts | 249° |
| 2026-04-22 05:37 | 10.76228 | 106.50781 | 5578 ft | 282 kts | 249° |
| 2026-04-22 05:37 | 10.75517 | 106.48906 | 6295 ft | 286 kts | 249° |
| 2026-04-22 05:37 | 10.74794 | 106.47004 | 6999 ft | 290 kts | 249° |
| 2026-04-22 05:37 | 10.74066 | 106.45081 | 7706 ft | 293 kts | 249° |
| 2026-04-22 05:38 | 10.73331 | 106.43140 | 8406 ft | 295 kts | 249° |
| 2026-04-22 05:38 | 10.72588 | 106.41183 | 9093 ft | 298 kts | 249° |
| 2026-04-22 05:38 | 10.71836 | 106.39208 | 9760 ft | 301 kts | 249° |
| 2026-04-22 05:38 | 10.71075 | 106.37205 | 10207 ft | 311 kts | 249° |
| 2026-04-22 05:39 | 10.70269 | 106.35084 | 10333 ft | 332 kts | 249° |
| 2026-04-22 05:39 | 10.69412 | 106.32832 | 10450 ft | 351 kts | 249° |
| 2026-04-22 05:39 | 10.68513 | 106.30459 | 10570 ft | 368 kts | 249° |
| 2026-04-22 05:39 | 10.67635 | 106.28013 | 10873 ft | 377 kts | 250° |
| 2026-04-22 05:40 | 10.66773 | 106.25484 | 11357 ft | 381 kts | 251° |
| 2026-04-22 05:40 | 10.65920 | 106.22925 | 11863 ft | 383 kts | 251° |
| 2026-04-22 05:40 | 10.65067 | 106.20347 | 12381 ft | 386 kts | 251° |
| 2026-04-22 05:40 | 10.64207 | 106.17754 | 12887 ft | 388 kts | 251° |
| 2026-04-22 05:41 | 10.63334 | 106.15147 | 13399 ft | 391 kts | 251° |
| 2026-04-22 05:41 | 10.62447 | 106.12523 | 13849 ft | 394 kts | 251° |
| 2026-04-22 05:41 | 10.61550 | 106.09880 | 14283 ft | 397 kts | 251° |
| 2026-04-22 05:41 | 10.60644 | 106.07222 | 14719 ft | 399 kts | 251° |
| 2026-04-22 05:42 | 10.59730 | 106.04547 | 15165 ft | 402 kts | 251° |
| 2026-04-22 05:42 | 10.58812 | 106.01861 | 15612 ft | 404 kts | 251° |
| 2026-04-22 05:42 | 10.57882 | 105.99153 | 16048 ft | 407 kts | 250° |
| 2026-04-22 05:42 | 10.56913 | 105.96440 | 16458 ft | 410 kts | 250° |
| 2026-04-22 05:43 | 10.55912 | 105.93713 | 16866 ft | 412 kts | 249° |
| 2026-04-22 05:43 | 10.54899 | 105.90987 | 17272 ft | 414 kts | 249° |
| 2026-04-22 05:43 | 10.53876 | 105.88231 | 17674 ft | 417 kts | 249° |
| 2026-04-22 05:43 | 10.52866 | 105.85501 | 18074 ft | 420 kts | 249° |
| 2026-04-22 05:44 | 10.51839 | 105.82717 | 18415 ft | 422 kts | 249° |
| 2026-04-22 05:44 | 10.50811 | 105.79921 | 18727 ft | 425 kts | 249° |
| 2026-04-22 05:44 | 10.49776 | 105.77096 | 19034 ft | 428 kts | 249° |
| 2026-04-22 05:44 | 10.48736 | 105.74251 | 19342 ft | 431 kts | 249° |
| 2026-04-22 05:45 | 10.47689 | 105.71385 | 19654 ft | 434 kts | 249° |
| 2026-04-22 05:45 | 10.46632 | 105.68493 | 19825 ft | 436 kts | 249° |
| 2026-04-22 05:45 | 10.45566 | 105.65577 | 19871 ft | 446 kts | 249° |
| 2026-04-22 05:45 | 10.44470 | 105.62591 | 19867 ft | 457 kts | 249° |
| 2026-04-22 05:46 | 10.43350 | 105.59547 | 19862 ft | 461 kts | 249° |
| 2026-04-22 05:46 | 10.42229 | 105.56497 | 19866 ft | 462 kts | 249° |
| 2026-04-22 05:46 | 10.41105 | 105.53433 | 19864 ft | 463 kts | 249° |
| 2026-04-22 05:46 | 10.39981 | 105.50369 | 19866 ft | 463 kts | 249° |
| 2026-04-22 05:47 | 10.38855 | 105.47309 | 19866 ft | 462 kts | 249° |
| 2026-04-22 05:47 | 10.37729 | 105.44249 | 19865 ft | 462 kts | 249° |
| 2026-04-22 05:47 | 10.36603 | 105.41193 | 19865 ft | 462 kts | 249° |
| 2026-04-22 05:47 | 10.35476 | 105.38132 | 19865 ft | 462 kts | 249° |
| 2026-04-22 05:48 | 10.34354 | 105.35081 | 19858 ft | 462 kts | 249° |
| 2026-04-22 05:48 | 10.33245 | 105.32065 | 19853 ft | 462 kts | 249° |
| 2026-04-22 05:48 | 10.32120 | 105.29007 | 19861 ft | 462 kts | 249° |
| 2026-04-22 05:48 | 10.30992 | 105.25950 | 19852 ft | 462 kts | 249° |
| 2026-04-22 05:49 | 10.29865 | 105.22895 | 19848 ft | 462 kts | 249° |
| 2026-04-22 05:49 | 10.28742 | 105.19848 | 19848 ft | 462 kts | 249° |
| 2026-04-22 05:49 | 10.27617 | 105.16793 | 19852 ft | 461 kts | 249° |
| 2026-04-22 05:49 | 10.26496 | 105.13742 | 19841 ft | 461 kts | 249° |
| 2026-04-22 05:50 | 10.25374 | 105.10699 | 19852 ft | 454 kts | 249° |
| 2026-04-22 05:50 | 10.24283 | 105.07743 | 19190 ft | 447 kts | 249° |
| 2026-04-22 05:50 | 10.23192 | 105.04786 | 18321 ft | 446 kts | 249° |
| 2026-04-22 05:50 | 10.22111 | 105.01853 | 17536 ft | 441 kts | 249° |
| 2026-04-22 05:51 | 10.21041 | 104.98959 | 16747 ft | 435 kts | 249° |
| 2026-04-22 05:51 | 10.19986 | 104.96103 | 15961 ft | 431 kts | 249° |
| 2026-04-22 05:51 | 10.18940 | 104.93273 | 15192 ft | 426 kts | 249° |
| 2026-04-22 05:51 | 10.17901 | 104.90460 | 14470 ft | 423 kts | 249° |
| 2026-04-22 05:52 | 10.16874 | 104.87681 | 13770 ft | 419 kts | 249° |
| 2026-04-22 05:52 | 10.15853 | 104.84924 | 12993 ft | 415 kts | 249° |
| 2026-04-22 05:52 | 10.14842 | 104.82193 | 12218 ft | 411 kts | 249° |
| 2026-04-22 05:52 | 10.13841 | 104.79493 | 11620 ft | 404 kts | 249° |
| 2026-04-22 05:53 | 10.12887 | 104.76920 | 11402 ft | 372 kts | 249° |
| 2026-04-22 05:53 | 10.12210 | 104.74509 | 11062 ft | 340 kts | 263° |
| 2026-04-22 05:53 | 10.12162 | 104.72225 | 10769 ft | 313 kts | 273° |
| 2026-04-22 05:53 | 10.12275 | 104.70054 | 10155 ft | 303 kts | 274° |
| 2026-04-22 05:54 | 10.12392 | 104.67962 | 9440 ft | 299 kts | 274° |
| 2026-04-22 05:54 | 10.12509 | 104.65864 | 8881 ft | 296 kts | 274° |
| 2026-04-22 05:54 | 10.12625 | 104.63783 | 8654 ft | 296 kts | 274° |
| 2026-04-22 05:54 | 10.12740 | 104.61700 | 8399 ft | 295 kts | 274° |
| 2026-04-22 05:55 | 10.12854 | 104.59623 | 8152 ft | 294 kts | 274° |
| 2026-04-22 05:55 | 10.12968 | 104.57555 | 7913 ft | 293 kts | 274° |
| 2026-04-22 05:55 | 10.13083 | 104.55490 | 7672 ft | 292 kts | 274° |
| 2026-04-22 05:55 | 10.13197 | 104.53443 | 7433 ft | 291 kts | 274° |
| 2026-04-22 05:56 | 10.13313 | 104.51394 | 7202 ft | 290 kts | 274° |
| 2026-04-22 05:56 | 10.13427 | 104.49356 | 6964 ft | 289 kts | 274° |
| 2026-04-22 05:56 | 10.13539 | 104.47330 | 6734 ft | 288 kts | 274° |
| 2026-04-22 05:56 | 10.13651 | 104.45306 | 6504 ft | 287 kts | 274° |
| 2026-04-22 05:57 | 10.13762 | 104.43288 | 6276 ft | 286 kts | 274° |
| 2026-04-22 05:57 | 10.13872 | 104.41278 | 6032 ft | 285 kts | 274° |
| 2026-04-22 05:57 | 10.13981 | 104.39278 | 5780 ft | 283 kts | 274° |
| 2026-04-22 05:57 | 10.14090 | 104.37284 | 5540 ft | 282 kts | 274° |
| 2026-04-22 05:58 | 10.14199 | 104.35299 | 5301 ft | 281 kts | 274° |
| 2026-04-22 05:58 | 10.14308 | 104.33318 | 5056 ft | 281 kts | 274° |
| 2026-04-22 05:58 | 10.14416 | 104.31345 | 4824 ft | 280 kts | 274° |
| 2026-04-22 05:58 | 10.14524 | 104.29376 | 4576 ft | 279 kts | 274° |
| 2026-04-22 05:59 | 10.14631 | 104.27420 | 4331 ft | 275 kts | 274° |
| 2026-04-22 05:59 | 10.14733 | 104.25544 | 4073 ft | 255 kts | 274° |
| 2026-04-22 05:59 | 10.14719 | 104.23821 | 3844 ft | 233 kts | 268° |
| 2026-04-22 05:59 | 10.14728 | 104.22253 | 3655 ft | 214 kts | 274° |
| 2026-04-22 06:00 | 10.14849 | 104.20787 | 3633 ft | 211 kts | 276° |
| 2026-04-22 06:00 | 10.14995 | 104.19309 | 3443 ft | 207 kts | 277° |
| 2026-04-22 06:00 | 10.15137 | 104.17892 | 3206 ft | 198 kts | 276° |
| 2026-04-22 06:00 | 10.15273 | 104.16531 | 2958 ft | 188 kts | 276° |
| 2026-04-22 06:01 | 10.15398 | 104.15276 | 2743 ft | 169 kts | 276° |
| 2026-04-22 06:01 | 10.15511 | 104.14134 | 2527 ft | 158 kts | 276° |
| 2026-04-22 06:01 | 10.15620 | 104.13041 | 2327 ft | 154 kts | 275° |
| 2026-04-22 06:01 | 10.15691 | 104.12327 | 2198 ft | 153 kts | 275° |
| 2026-04-22 06:02 | 10.15834 | 104.10891 | 1934 ft | 153 kts | 274° |
| 2026-04-22 06:02 | 10.15905 | 104.10181 | 1807 ft | 153 kts | 274° |
| 2026-04-22 06:02 | 10.16011 | 104.09110 | 1620 ft | 153 kts | 274° |
| 2026-04-22 06:02 | 10.16118 | 104.08038 | 1412 ft | 151 kts | 273° |
| 2026-04-22 06:03 | 10.16224 | 104.06971 | 1223 ft | 152 kts | 273° |
| 2026-04-22 06:03 | 10.16330 | 104.05904 | 1024 ft | 153 kts | 273° |
| 2026-04-22 06:03 | 10.16438 | 104.04833 | 851 ft | 152 kts | 273° |
| 2026-04-22 06:03 | 10.16550 | 104.03758 | 642 ft | 155 kts | 273° |
| 2026-04-22 06:04 | 10.16688 | 104.02313 | 404 ft | 155 kts | 275° |
| 2026-04-22 06:04 | 10.16803 | 104.01218 | 216 ft | 157 kts | 274° |
| 2026-04-22 06:04 | 10.16903 | 104.00140 | 60 ft | 143 kts | 276° |
| 2026-04-22 06:04 | 10.16963 | 103.99534 | 66 ft | 111 kts | 276° |
| 2026-04-22 06:05 | 10.17036 | 103.98809 | 67 ft | 43 kts | 274° |
| 2026-04-22 06:05 | 10.17002 | 103.98626 | 62 ft | 28 kts | 241° |
| 2026-04-22 06:05 | 10.16909 | 103.98537 | 61 ft | 18 kts | 170° |
| 2026-04-22 06:05 | 10.16882 | 103.98586 | 65 ft | 7 kts | 96° |
| 2026-04-22 06:06 | 10.16876 | 103.98644 | 64 ft | 9 kts | 96° |
| 2026-04-22 06:06 | 10.16869 | 103.98714 | 66 ft | 11 kts | 95° |
| 2026-04-22 06:06 | 10.16861 | 103.98797 | 66 ft | 13 kts | 96° |
| 2026-04-22 06:06 | 10.16852 | 103.98891 | 64 ft | 14 kts | 95° |
| 2026-04-22 06:07 | 10.16841 | 103.98998 | 62 ft | 16 kts | 96° |
| 2026-04-22 06:07 | 10.16830 | 103.99114 | 66 ft | 17 kts | 95° |
| 2026-04-22 06:07 | 10.16818 | 103.99240 | 66 ft | 18 kts | 96° |
| 2026-04-22 06:07 | 10.16805 | 103.99372 | 66 ft | 18 kts | 96° |
| 2026-04-22 06:08 | 10.16792 | 103.99500 | 64 ft | 16 kts | 96° |
| 2026-04-22 06:08 | 10.16719 | 103.99552 | 66 ft | 15 kts | 183° |
| 2026-04-22 06:08 | 10.16612 | 103.99541 | 63 ft | 16 kts | 186° |
| 2026-04-22 06:08 | 10.16539 | 103.99567 | 62 ft | 6 kts | 95° |
| 2026-04-22 06:09 | 10.16534 | 103.99618 | 66 ft | 8 kts | 95° |
| 2026-04-22 06:09 | 10.16528 | 103.99682 | 66 ft | 10 kts | 96° |
| 2026-04-22 06:09 | 10.16521 | 103.99752 | 66 ft | 2 kts | 96° |
| 2026-04-22 06:09 | 10.16519 | 103.99774 | 66 ft | 4 kts | 96° |
| 2026-04-22 06:10 | 10.16518 | 103.99782 | 66 ft | 2 kts | 95° |
| 2026-04-22 06:10 | 10.16516 | 103.99805 | 66 ft | 4 kts | 95° |
| 2026-04-22 06:10 | 10.16514 | 103.99823 | 66 ft | 2 kts | 95° |
| 2026-04-22 06:10 | 10.16509 | 103.99842 | 58 ft | 3 kts | 123° |
| 2026-04-22 06:11 | 10.16487 | 103.99850 | 63 ft | 4 kts | 171° |
| 2026-04-22 06:11 | 10.16450 | 103.99848 | 59 ft | 6 kts | 185° |
| 2026-04-22 06:11 | 10.16424 | 103.99845 | 63 ft | 0 kts | 186° |